sensor_id;sensor_type;location;lat;lon;timestamp;temperature;humidity
7378;DHT22;3730;50.856;12.776;2023-06-22T00:01:28;21.30;99.90
7378;DHT22;3730;50.856;12.776;2023-06-22T04:56:32;20.70;99.90
7378;DHT22;3730;50.856;12.776;2023-06-22T04:58:59;21.20;99.90
7378;DHT22;3730;50.856;12.776;2023-06-22T05:01:24;21.20;99.90
7378;DHT22;3730;50.856;12.776;2023-06-22T05:03:51;21.30;99.90
7378;DHT22;3730;50.856;12.776;2023-06-22T05:06:24;21.30;99.90
7378;DHT22;3730;50.856;12.776;2023-06-22T05:08:54;21.40;99.90
7378;DHT22;3730;50.856;12.776;2023-06-22T05:11:27;21.40;99.90
7378;DHT22;3730;50.856;12.776;2023-06-22T05:13:53;21.50;99.90
7378;DHT22;3730;50.856;12.776;2023-06-22T05:16:20;21.50;99.40
7378;DHT22;3730;50.856;12.776;2023-06-22T05:18:53;21.60;98.60
7378;DHT22;3730;50.856;12.776;2023-06-22T05:21:22;21.70;96.70
7378;DHT22;3730;50.856;12.776;2023-06-22T05:23:48;21.70;96.00
7378;DHT22;3730;50.856;12.776;2023-06-22T05:26:14;21.80;95.70
7378;DHT22;3730;50.856;12.776;2023-06-22T05:32:02;21.90;95.30
7378;DHT22;3730;50.856;12.776;2023-06-22T05:34:28;22.00;96.00
7378;DHT22;3730;50.856;12.776;2023-06-22T05:36:53;22.00;97.10
7378;DHT22;3730;50.856;12.776;2023-06-22T05:39:19;22.40;99.00
7378;DHT22;3730;50.856;12.776;2023-06-22T05:41:45;22.10;99.90
7378;DHT22;3730;50.856;12.776;2023-06-22T05:44:11;22.10;99.90
7378;DHT22;3730;50.856;12.776;2023-06-22T05:46:37;22.70;99.90
7378;DHT22;3730;50.856;12.776;2023-06-22T05:49:02;22.10;99.90
7378;DHT22;3730;50.856;12.776;2023-06-22T05:51:28;22.10;99.90
7378;DHT22;3730;50.856;12.776;2023-06-22T05:53:54;22.00;99.90
7378;DHT22;3730;50.856;12.776;2023-06-22T05:56:20;21.90;99.90
7378;DHT22;3730;50.856;12.776;2023-06-22T05:58:46;21.90;99.90
7378;DHT22;3730;50.856;12.776;2023-06-22T06:01:11;21.90;99.90
7378;DHT22;3730;50.856;12.776;2023-06-22T06:03:37;22.30;99.90
7378;DHT22;3730;50.856;12.776;2023-06-22T06:06:06;21.90;99.90
7378;DHT22;3730;50.856;12.776;2023-06-22T06:08:32;22.40;99.90
7378;DHT22;3730;50.856;12.776;2023-06-22T06:10:57;22.00;99.90
7378;DHT22;3730;50.856;12.776;2023-06-22T06:13:23;22.10;99.80
7378;DHT22;3730;50.856;12.776;2023-06-22T06:15:49;22.10;98.50
7378;DHT22;3730;50.856;12.776;2023-06-22T06:18:16;21.90;97.00
7378;DHT22;3730;50.856;12.776;2023-06-22T08:25:06;21.80;96.50
7378;DHT22;3730;50.856;12.776;2023-06-22T08:27:32;25.50;34.50
7378;DHT22;3730;50.856;12.776;2023-06-22T08:29:58;25.60;33.80
7378;DHT22;3730;50.856;12.776;2023-06-22T08:32:28;25.60;33.20
7378;DHT22;3730;50.856;12.776;2023-06-22T08:34:57;25.70;32.20
7378;DHT22;3730;50.856;12.776;2023-06-22T08:37:23;25.80;32.20
7378;DHT22;3730;50.856;12.776;2023-06-22T08:39:58;25.70;30.10
7378;DHT22;3730;50.856;12.776;2023-06-22T08:42:24;25.80;28.90
7378;DHT22;3730;50.856;12.776;2023-06-22T08:44:51;25.90;29.40
7378;DHT22;3730;50.856;12.776;2023-06-22T10:44:38;25.80;29.30
7378;DHT22;3730;50.856;12.776;2023-06-22T10:47:06;28.10;10.00
7378;DHT22;3730;50.856;12.776;2023-06-22T10:49:32;28.10;9.90
7378;DHT22;3730;50.856;12.776;2023-06-22T10:51:57;28.20;9.20
7378;DHT22;3730;50.856;12.776;2023-06-22T10:56:49;28.20;8.30
7378;DHT22;3730;50.856;12.776;2023-06-22T10:59:14;28.50;8.70
7378;DHT22;3730;50.856;12.776;2023-06-22T11:01:40;29.10;8.10
7378;DHT22;3730;50.856;12.776;2023-06-22T11:04:05;29.30;6.90
7378;DHT22;3730;50.856;12.776;2023-06-22T11:06:31;29.40;6.60
7378;DHT22;3730;50.856;12.776;2023-06-22T11:08:56;28.50;6.40
7378;DHT22;3730;50.856;12.776;2023-06-22T11:11:23;28.80;6.20
7378;DHT22;3730;50.856;12.776;2023-06-22T11:13:48;28.80;5.20
7378;DHT22;3730;50.856;12.776;2023-06-22T11:16:14;28.90;5.00
7378;DHT22;3730;50.856;12.776;2023-06-22T11:18:40;29.00;4.40
7378;DHT22;3730;50.856;12.776;2023-06-22T11:21:05;29.10;3.90
7378;DHT22;3730;50.856;12.776;2023-06-22T11:23:31;29.20;2.80
7378;DHT22;3730;50.856;12.776;2023-06-22T11:25:56;29.30;2.60
7378;DHT22;3730;50.856;12.776;2023-06-22T11:28:22;29.40;2.60
7378;DHT22;3730;50.856;12.776;2023-06-22T11:30:47;29.50;2.10
7378;DHT22;3730;50.856;12.776;2023-06-22T11:33:13;29.60;1.00
7378;DHT22;3730;50.856;12.776;2023-06-22T11:35:38;29.60;1.00
7378;DHT22;3730;50.856;12.776;2023-06-22T11:38:04;29.80;1.00
7378;DHT22;3730;50.856;12.776;2023-06-22T11:40:30;29.80;1.00
7378;DHT22;3730;50.856;12.776;2023-06-22T11:42:56;29.70;1.00
7378;DHT22;3730;50.856;12.776;2023-06-22T11:45:21;29.80;1.00
7378;DHT22;3730;50.856;12.776;2023-06-22T11:47:47;29.70;1.00
7378;DHT22;3730;50.856;12.776;2023-06-22T11:50:13;29.60;1.00
7378;DHT22;3730;50.856;12.776;2023-06-22T11:52:38;29.50;1.00
7378;DHT22;3730;50.856;12.776;2023-06-22T11:55:05;29.50;1.00
7378;DHT22;3730;50.856;12.776;2023-06-22T11:57:36;29.40;1.00
7378;DHT22;3730;50.856;12.776;2023-06-22T12:00:03;30.10;1.00
7378;DHT22;3730;50.856;12.776;2023-06-22T12:02:41;29.70;1.00
7378;DHT22;3730;50.856;12.776;2023-06-22T12:17:17;29.80;1.00
7378;DHT22;3730;50.856;12.776;2023-06-22T12:19:42;30.60;1.00
7378;DHT22;3730;50.856;12.776;2023-06-22T15:44:34;30.60;1.00
7378;DHT22;3730;50.856;12.776;2023-06-22T15:47:00;31.70;1.00
7378;DHT22;3730;50.856;12.776;2023-06-22T16:43:02;31.70;1.00
7378;DHT22;3730;50.856;12.776;2023-06-22T16:45:28;30.70;1.00
7378;DHT22;3730;50.856;12.776;2023-06-22T16:47:54;30.60;1.00
7378;DHT22;3730;50.856;12.776;2023-06-22T16:50:19;30.50;1.00
7378;DHT22;3730;50.856;12.776;2023-06-22T16:52:45;30.50;1.00
7378;DHT22;3730;50.856;12.776;2023-06-22T16:55:12;30.40;1.00
7378;DHT22;3730;50.856;12.776;2023-06-22T16:57:38;30.30;1.00
7378;DHT22;3730;50.856;12.776;2023-06-22T17:00:05;30.30;1.00
7378;DHT22;3730;50.856;12.776;2023-06-22T17:02:41;30.20;1.00
7378;DHT22;3730;50.856;12.776;2023-06-22T17:05:08;30.10;1.00
7378;DHT22;3730;50.856;12.776;2023-06-22T17:07:36;30.10;1.00
7378;DHT22;3730;50.856;12.776;2023-06-22T17:10:03;30.10;1.00
7378;DHT22;3730;50.856;12.776;2023-06-22T17:12:30;30.00;1.00
7378;DHT22;3730;50.856;12.776;2023-06-22T17:14:57;30.00;1.00
7378;DHT22;3730;50.856;12.776;2023-06-22T17:17:24;30.00;1.00
7378;DHT22;3730;50.856;12.776;2023-06-22T17:19:52;29.90;1.00
7378;DHT22;3730;50.856;12.776;2023-06-22T17:22:17;29.90;1.00
7378;DHT22;3730;50.856;12.776;2023-06-22T17:24:44;29.80;1.00
7378;DHT22;3730;50.856;12.776;2023-06-22T17:27:10;29.70;1.00
7378;DHT22;3730;50.856;12.776;2023-06-22T17:29:36;29.70;1.00
7378;DHT22;3730;50.856;12.776;2023-06-22T17:32:02;29.60;1.00
7378;DHT22;3730;50.856;12.776;2023-06-22T17:39:23;29.60;1.00
7378;DHT22;3730;50.856;12.776;2023-06-22T17:49:12;29.40;1.00
7378;DHT22;3730;50.856;12.776;2023-06-22T17:51:43;29.10;1.00
7378;DHT22;3730;50.856;12.776;2023-06-22T17:54:09;29.10;1.00
7378;DHT22;3730;50.856;12.776;2023-06-22T17:56:35;29.00;1.00
7378;DHT22;3730;50.856;12.776;2023-06-22T17:59:02;29.00;1.00
7378;DHT22;3730;50.856;12.776;2023-06-22T18:04:18;28.90;1.00
7378;DHT22;3730;50.856;12.776;2023-06-22T18:06:48;28.80;1.00
7378;DHT22;3730;50.856;12.776;2023-06-22T18:09:15;28.80;1.00
7378;DHT22;3730;50.856;12.776;2023-06-22T18:11:49;28.70;1.00
7378;DHT22;3730;50.856;12.776;2023-06-22T18:14:19;28.70;1.00
7378;DHT22;3730;50.856;12.776;2023-06-22T18:16:49;28.60;1.00
7378;DHT22;3730;50.856;12.776;2023-06-22T18:19:18;28.50;1.00
7378;DHT22;3730;50.856;12.776;2023-06-22T18:21:48;28.50;1.00
7378;DHT22;3730;50.856;12.776;2023-06-22T18:24:15;28.40;1.00
7378;DHT22;3730;50.856;12.776;2023-06-22T18:26:43;28.30;1.00
7378;DHT22;3730;50.856;12.776;2023-06-22T18:29:10;28.30;1.00
7378;DHT22;3730;50.856;12.776;2023-06-22T18:31:35;28.20;1.00
7378;DHT22;3730;50.856;12.776;2023-06-22T18:34:01;28.20;1.00
7378;DHT22;3730;50.856;12.776;2023-06-22T18:36:43;28.10;1.00
7378;DHT22;3730;50.856;12.776;2023-06-22T18:39:11;28.10;1.00
7378;DHT22;3730;50.856;12.776;2023-06-22T18:41:39;28.00;1.00
7378;DHT22;3730;50.856;12.776;2023-06-22T18:44:11;28.00;1.00
7378;DHT22;3730;50.856;12.776;2023-06-22T18:46:43;27.90;1.00
7378;DHT22;3730;50.856;12.776;2023-06-22T18:49:15;27.90;1.00
7378;DHT22;3730;50.856;12.776;2023-06-22T18:51:52;27.90;1.00
7378;DHT22;3730;50.856;12.776;2023-06-22T18:54:41;27.80;1.00
7378;DHT22;3730;50.856;12.776;2023-06-22T18:57:29;27.80;1.00
7378;DHT22;3730;50.856;12.776;2023-06-22T19:00:08;27.80;1.00
7378;DHT22;3730;50.856;12.776;2023-06-22T19:02:46;27.80;1.00
7378;DHT22;3730;50.856;12.776;2023-06-22T19:15:58;27.70;1.00
7378;DHT22;3730;50.856;12.776;2023-06-22T19:18:28;27.60;1.00
7378;DHT22;3730;50.856;12.776;2023-06-22T19:40:46;27.60;1.00
7378;DHT22;3730;50.856;12.776;2023-06-22T19:43:15;27.30;1.00
7378;DHT22;3730;50.856;12.776;2023-06-22T19:45:42;27.30;1.00
7378;DHT22;3730;50.856;12.776;2023-06-22T22:00:58;26.90;9.80
7378;DHT22;3730;50.856;12.776;2023-06-22T22:03:24;21.70;99.90
7378;DHT22;3730;50.856;12.776;2023-06-22T22:05:53;21.50;99.90
7378;DHT22;3730;50.856;12.776;2023-06-22T22:08:19;21.40;99.90
7378;DHT22;3730;50.856;12.776;2023-06-22T22:10:45;21.30;99.90
7378;DHT22;3730;50.856;12.776;2023-06-22T22:13:11;21.20;99.90
7378;DHT22;3730;50.856;12.776;2023-06-22T22:15:38;21.00;99.90
7378;DHT22;3730;50.856;12.776;2023-06-22T22:18:08;21.00;99.90
